createdAt,value
2019-05-19T00:00:53.405Z,90.01
2019-05-19T00:03:25.822Z,90.05
2019-05-19T00:05:58.407Z,89.70
2019-05-19T00:08:30.842Z,90.44
2019-05-19T00:11:04.803Z,89.74
2019-05-19T00:13:37.599Z,90.79
2019-05-19T00:16:14.287Z,90.54
2019-05-19T00:18:46.611Z,89.87
2019-05-19T00:21:18.978Z,89.87
2019-05-19T00:23:51.405Z,90.22
2019-05-19T00:26:25.476Z,90.47
2019-05-19T00:28:57.826Z,90.90
2019-05-19T00:31:30.385Z,90.87
2019-05-19T00:34:02.490Z,89.20
2019-05-19T00:36:36.621Z,90.46
2019-05-19T00:39:10.510Z,93.71
2019-05-19T00:41:42.880Z,94.55
2019-05-19T00:44:15.563Z,94.39
2019-05-19T00:46:48.295Z,94.91
2019-05-19T00:49:20.968Z,96.36
2019-05-19T00:51:53.364Z,96.36
2019-05-19T00:57:42.450Z,96.97
2019-05-19T01:00:15.795Z,97.07
2019-05-19T01:02:48.295Z,97.39
2019-05-19T01:05:22.709Z,96.58
2019-05-19T01:07:55.297Z,96.58
2019-05-19T01:10:27.623Z,96.29
2019-05-19T01:13:03.365Z,96.29
2019-05-19T01:15:37.442Z,95.76
2019-05-19T01:18:09.822Z,94.78
2019-05-19T01:20:42.342Z,94.78
2019-05-19T01:23:14.965Z,94.80
2019-05-19T01:25:48.808Z,95.44
2019-05-19T01:28:21.427Z,94.04
2019-05-19T01:30:53.768Z,93.47
2019-05-19T01:33:26.377Z,94.15
2019-05-19T01:35:59.343Z,92.59
2019-05-19T01:38:31.770Z,88.81
2019-05-19T01:41:04.300Z,93.37
2019-05-19T01:43:37.853Z,93.69
2019-05-19T01:46:17.841Z,93.69
2019-05-19T01:48:50.371Z,93.50
2019-05-19T01:51:22.801Z,93.32
2019-05-19T01:53:56.721Z,93.30
2019-05-19T01:56:29.311Z,92.76
2019-05-19T01:59:01.703Z,92.99
2019-05-19T02:01:34.053Z,92.99
2019-05-19T02:04:08.032Z,94.33
2019-05-19T02:06:40.436Z,94.33
2019-05-19T02:09:14.339Z,95.11
2019-05-19T02:11:49.845Z,94.26
2019-05-19T02:14:22.368Z,94.26
2019-05-19T02:16:55.290Z,95.08
2019-05-19T02:19:27.729Z,95.07
2019-05-19T02:22:00.485Z,95.07
2019-05-19T02:24:33.282Z,94.78
2019-05-19T02:27:05.785Z,94.53
2019-05-19T02:29:38.357Z,94.53
2019-05-19T02:32:10.724Z,94.23
2019-05-19T02:34:43.291Z,94.23
2019-05-19T02:37:14.839Z,94.04
2019-05-19T02:39:47.387Z,94.04
2019-05-19T02:42:21.835Z,94.83
2019-05-19T02:44:57.541Z,94.83
2019-05-19T02:47:31.354Z,94.41
2019-05-19T02:50:05.247Z,95.24
2019-05-19T02:52:40.627Z,95.24
2019-05-19T02:55:13.300Z,96.00
2019-05-19T02:57:47.925Z,95.90
2019-05-19T03:00:25.744Z,95.90
2019-05-19T03:02:57.520Z,95.17
2019-05-19T03:05:29.301Z,96.08
2019-05-19T03:08:01.603Z,96.23
2019-05-19T03:10:34.291Z,96.23
2019-05-19T03:13:13.771Z,95.70
2019-05-19T03:15:45.745Z,95.69
2019-05-19T03:18:18.292Z,96.52
2019-05-19T03:20:50.643Z,96.32
2019-05-19T03:23:23.396Z,96.32
2019-05-19T03:25:58.291Z,96.39
2019-05-19T03:28:30.641Z,96.64
2019-05-19T03:31:17.153Z,96.64
2019-05-19T03:33:53.894Z,96.48
2019-05-19T03:36:26.437Z,96.28
2019-05-19T03:38:59.429Z,96.70
2019-05-19T03:41:31.749Z,95.36
2019-05-19T03:44:04.351Z,96.38
2019-05-19T03:46:38.285Z,96.45
2019-05-19T03:49:10.593Z,95.18
2019-05-19T03:51:43.287Z,95.18
2019-05-19T03:54:15.244Z,95.65
2019-05-19T03:56:47.252Z,95.55
2019-05-19T03:59:19.452Z,95.91
2019-05-19T04:01:51.820Z,94.91
2019-05-19T04:04:24.304Z,95.27
2019-05-19T04:06:56.597Z,94.82
2019-05-19T04:09:29.440Z,94.82
2019-05-19T04:12:01.728Z,94.58
2019-05-19T04:14:34.253Z,94.98
2019-05-19T04:17:08.312Z,94.14
2019-05-19T04:19:40.616Z,94.20
2019-05-19T04:22:13.297Z,94.20
2019-05-19T04:24:48.388Z,93.21
2019-05-19T04:27:20.862Z,93.21
2019-05-19T04:29:53.342Z,92.88
2019-05-19T04:32:25.756Z,91.19
2019-05-19T04:34:58.292Z,91.19
2019-05-19T04:37:30.578Z,90.25
2019-05-19T04:40:03.351Z,90.25
2019-05-19T04:42:36.456Z,90.25
2019-05-19T04:45:11.653Z,90.25
2019-05-19T04:47:44.398Z,91.05
2019-05-19T04:50:17.299Z,88.75
2019-05-19T04:52:49.644Z,88.03
2019-05-19T04:55:22.309Z,88.03
2019-05-19T04:57:55.737Z,87.24
2019-05-19T05:00:28.266Z,87.96
2019-05-19T05:03:00.526Z,87.33
2019-05-19T05:05:33.171Z,87.34
2019-05-19T05:08:05.502Z,87.10
2019-05-19T05:10:38.728Z,88.48
2019-05-19T05:13:11.293Z,88.48
2019-05-19T05:15:43.718Z,86.70
2019-05-19T05:18:16.289Z,86.70
2019-05-19T05:20:48.759Z,86.41
2019-05-19T05:23:21.468Z,86.36
2019-05-19T05:25:55.306Z,86.04
2019-05-19T05:28:27.674Z,83.63
2019-05-19T05:31:04.481Z,83.63
2019-05-19T05:33:38.861Z,83.05
2019-05-19T05:36:10.489Z,83.21
2019-05-19T05:38:42.741Z,82.92
2019-05-19T05:41:15.284Z,82.68
2019-05-19T05:43:47.558Z,80.81
2019-05-19T05:46:20.013Z,80.81
2019-05-19T05:48:52.345Z,81.32
2019-05-19T05:51:24.627Z,82.09
2019-05-19T05:53:59.623Z,82.09
2019-05-19T05:56:32.819Z,81.31
2019-05-19T05:59:05.373Z,82.29
2019-05-19T06:01:39.304Z,81.73
2019-05-19T06:04:11.582Z,80.63
2019-05-19T06:06:45.858Z,80.63
2019-05-19T06:09:19.369Z,81.18
2019-05-19T06:11:51.809Z,79.26
2019-05-19T06:14:24.289Z,79.26
2019-05-19T06:16:56.634Z,76.65
2019-05-19T06:19:29.275Z,76.65
2019-05-19T06:22:01.583Z,71.03
2019-05-19T06:24:34.277Z,71.03
2019-05-19T06:27:06.820Z,71.26
2019-05-19T06:29:39.293Z,70.31
2019-05-19T06:32:25.041Z,71.32
2019-05-19T06:34:57.587Z,71.32
2019-05-19T06:37:31.452Z,70.87
2019-05-19T06:40:04.419Z,69.13
2019-05-19T06:42:37.014Z,69.26
2019-05-19T06:45:09.998Z,69.58
2019-05-19T06:47:42.471Z,69.58
2019-05-19T06:50:15.751Z,69.28
2019-05-19T06:52:48.284Z,69.17
2019-05-19T06:55:20.847Z,68.29
2019-05-19T06:57:53.314Z,68.29
2019-05-19T07:00:25.866Z,67.80
2019-05-19T07:02:58.296Z,67.80
2019-05-19T07:05:30.903Z,65.72
2019-05-19T07:08:03.392Z,65.51
2019-05-19T07:10:35.749Z,65.06
2019-05-19T07:13:09.605Z,64.96
2019-05-19T07:15:44.553Z,64.96
2019-05-19T07:18:17.288Z,62.36
2019-05-19T07:20:49.730Z,64.23
2019-05-19T07:23:28.419Z,64.23
2019-05-19T07:25:56.451Z,63.53
2019-05-19T07:28:30.292Z,63.21
2019-05-19T07:31:02.027Z,63.33
2019-05-19T07:33:34.802Z,63.33
2019-05-19T07:36:07.412Z,61.86
2019-05-19T07:38:39.887Z,60.00
2019-05-19T07:41:12.310Z,61.17
2019-05-19T07:43:44.827Z,62.08
2019-05-19T07:46:17.299Z,61.28
2019-05-19T07:48:49.736Z,62.24
2019-05-19T07:51:22.306Z,62.24
2019-05-19T07:53:54.688Z,62.37
2019-05-19T07:56:26.244Z,62.37
2019-05-19T07:58:58.841Z,61.81
2019-05-19T08:01:30.514Z,58.79
2019-05-19T08:04:02.991Z,58.49
2019-05-19T08:06:35.439Z,57.49
2019-05-19T08:09:09.317Z,57.21
2019-05-19T08:11:47.292Z,55.23
2019-05-19T08:14:18.939Z,54.09
2019-05-19T08:16:51.609Z,54.09
2019-05-19T08:19:24.284Z,52.62
2019-05-19T08:21:56.811Z,49.32
2019-05-19T08:24:29.384Z,49.32
2019-05-19T08:27:01.921Z,51.82
2019-05-19T08:32:31.304Z,50.66
2019-05-19T08:35:04.434Z,51.73
2019-05-19T08:37:37.290Z,51.73
2019-05-19T08:40:10.854Z,51.24
2019-05-19T08:42:43.490Z,50.19
2019-05-19T08:45:18.057Z,48.35
2019-05-19T08:47:51.290Z,52.35
2019-05-19T08:50:23.698Z,52.20
2019-05-19T08:52:56.294Z,52.20
2019-05-19T08:55:28.697Z,49.88
2019-05-19T08:58:01.357Z,49.88
2019-05-19T09:00:38.291Z,48.89
2019-05-19T09:03:08.447Z,51.01
2019-05-19T09:05:40.843Z,49.31
2019-05-19T09:08:13.310Z,49.41
2019-05-19T09:10:45.795Z,47.78
2019-05-19T09:13:18.301Z,47.78
2019-05-19T09:18:44.374Z,47.28
2019-05-19T09:21:16.761Z,49.84
2019-05-19T09:23:49.290Z,49.84
2019-05-19T09:26:21.732Z,51.25
2019-05-19T09:28:54.218Z,51.25
2019-05-19T09:31:26.648Z,53.18
2019-05-19T09:34:00.304Z,54.57
2019-05-19T09:36:34.283Z,52.88
2019-05-19T09:39:08.739Z,51.06
2019-05-19T09:41:41.343Z,51.06
2019-05-19T09:44:13.253Z,50.80
2019-05-19T09:46:45.586Z,50.80
2019-05-19T09:49:33.253Z,49.88
2019-05-19T09:52:07.398Z,49.50
2019-05-19T09:54:45.272Z,51.68
2019-05-19T09:57:15.300Z,51.33
2019-05-19T09:59:47.709Z,48.09
2019-05-19T10:02:20.367Z,48.09
2019-05-19T10:04:54.267Z,47.57
2019-05-19T10:07:27.777Z,48.91
2019-05-19T10:10:03.408Z,48.91
2019-05-19T10:12:35.768Z,47.67
2019-05-19T10:15:09.782Z,45.74
2019-05-19T10:17:42.314Z,45.24
2019-05-19T10:20:15.865Z,45.63
2019-05-19T10:22:48.582Z,45.63
2019-05-19T10:25:22.916Z,45.32
2019-05-19T10:27:56.298Z,44.07
2019-05-19T10:30:29.296Z,43.39
2019-05-19T10:33:01.803Z,44.81
2019-05-19T10:35:34.336Z,44.81
2019-05-19T10:38:06.711Z,43.76
2019-05-19T10:40:42.360Z,44.59
2019-05-19T10:43:14.726Z,44.87
2019-05-19T10:45:50.352Z,44.87
2019-05-19T10:48:23.450Z,43.71
2019-05-19T10:50:55.730Z,45.47
2019-05-19T10:53:28.310Z,46.03
2019-05-19T10:56:00.830Z,44.97
2019-05-19T10:58:33.317Z,44.97
2019-05-19T11:01:05.997Z,46.26
2019-05-19T11:03:38.395Z,46.26
2019-05-19T11:08:30.825Z,44.98
2019-05-19T11:11:03.360Z,44.59
2019-05-19T11:13:37.302Z,43.88
2019-05-19T11:16:09.742Z,43.78
2019-05-19T11:18:42.294Z,43.78
2019-05-19T11:21:14.500Z,41.71
2019-05-19T11:23:47.473Z,42.25
2019-05-19T11:26:20.282Z,41.55
2019-05-19T11:28:52.792Z,40.96
2019-05-19T11:31:25.308Z,40.96
2019-05-19T11:33:57.719Z,41.62
2019-05-19T11:36:30.305Z,41.62
2019-05-19T11:39:03.038Z,39.01
2019-05-19T11:41:37.294Z,39.01
2019-05-19T11:44:09.788Z,36.37
2019-05-19T11:46:42.281Z,36.37
2019-05-19T11:49:13.847Z,36.13
2019-05-19T11:51:46.284Z,36.13
2019-05-19T11:54:18.702Z,33.01
2019-05-19T11:56:50.264Z,33.01
2019-05-19T11:59:22.627Z,31.54
2019-05-19T12:01:56.108Z,31.54
2019-05-19T12:04:27.727Z,30.36
2019-05-19T12:07:00.441Z,30.93
2019-05-19T12:09:32.857Z,35.28
2019-05-19T12:12:05.299Z,33.41
2019-05-19T12:14:37.702Z,33.20
2019-05-19T12:17:10.320Z,33.20
2019-05-19T12:19:42.774Z,30.74
2019-05-19T12:22:15.300Z,30.74
2019-05-19T12:24:47.832Z,31.79
2019-05-19T12:27:20.286Z,31.79
2019-05-19T12:29:52.718Z,33.70
2019-05-19T12:32:25.283Z,33.70
2019-05-19T12:34:57.643Z,28.02
2019-05-19T12:37:30.289Z,28.02
2019-05-19T12:40:02.975Z,22.25
2019-05-19T12:42:37.299Z,22.25
2019-05-19T12:45:13.853Z,21.21
2019-05-19T12:47:46.320Z,21.21
2019-05-19T12:50:21.040Z,20.09
2019-05-19T12:52:54.872Z,19.48
2019-05-19T12:55:27.482Z,19.48
2019-05-19T12:57:59.861Z,18.93
2019-05-19T13:00:32.430Z,18.94
2019-05-19T13:03:04.814Z,18.08
2019-05-19T13:05:37.502Z,21.95
2019-05-19T13:08:11.625Z,23.34
2019-05-19T13:10:44.488Z,20.69
2019-05-19T13:13:16.888Z,19.55
2019-05-19T13:15:49.292Z,17.80
2019-05-19T13:18:21.708Z,19.76
2019-05-19T13:20:54.285Z,19.76
2019-05-19T13:23:27.311Z,15.07
2019-05-19T13:25:59.663Z,16.46
2019-05-19T13:28:32.315Z,16.46
2019-05-19T13:31:04.653Z,16.73
2019-05-19T13:33:38.284Z,16.73
2019-05-19T13:36:12.380Z,18.71
2019-05-19T13:38:45.290Z,19.42
2019-05-19T13:41:17.817Z,19.99
2019-05-19T13:43:50.305Z,19.99
2019-05-19T13:46:22.679Z,21.33
2019-05-19T13:48:55.297Z,21.33
2019-05-19T13:51:27.755Z,23.89
2019-05-19T13:54:00.401Z,23.89
2019-05-19T13:56:34.220Z,26.76
2019-05-19T13:59:06.088Z,29.53
2019-05-19T14:01:38.664Z,29.53
2019-05-19T14:04:12.847Z,28.89
2019-05-19T14:06:45.445Z,29.48
2019-05-19T14:09:17.740Z,30.29
2019-05-19T14:11:50.314Z,31.09
2019-05-19T14:14:22.876Z,31.80
2019-05-19T14:16:55.323Z,31.80
2019-05-19T14:19:28.237Z,30.96
2019-05-19T14:22:01.057Z,30.64
2019-05-19T14:24:33.387Z,30.64
2019-05-19T14:27:06.536Z,30.29
2019-05-19T14:29:38.978Z,30.29
2019-05-19T14:32:13.303Z,30.47
2019-05-19T14:34:44.893Z,28.90
2019-05-19T14:37:17.417Z,28.90
2019-05-19T14:39:49.050Z,28.27
2019-05-19T14:42:39.534Z,26.29
2019-05-19T14:45:14.335Z,25.41
2019-05-19T14:47:47.042Z,26.08
2019-05-19T14:50:19.911Z,25.38
2019-05-19T14:52:52.501Z,24.38
2019-05-19T14:55:25.334Z,25.31
2019-05-19T14:57:57.651Z,25.54
2019-05-19T15:00:30.276Z,25.54
2019-05-19T15:03:02.780Z,21.58
2019-05-19T15:05:35.373Z,21.58
2019-05-19T15:08:10.673Z,20.01
2019-05-19T15:10:43.554Z,20.01
2019-05-19T15:13:16.153Z,17.03
2019-05-19T15:15:48.661Z,16.48
2019-05-19T15:18:21.283Z,16.48
2019-05-19T15:20:53.679Z,21.16
2019-05-19T15:23:26.288Z,21.16
2019-05-19T15:25:58.608Z,22.92
2019-05-19T15:28:31.276Z,22.92
2019-05-19T15:31:03.691Z,24.48
2019-05-19T15:33:38.625Z,25.78
2019-05-19T15:36:10.508Z,26.81
2019-05-19T15:38:43.822Z,24.48
2019-05-19T15:41:16.359Z,24.61
2019-05-19T15:43:48.869Z,26.56
2019-05-19T15:46:21.386Z,27.96
2019-05-19T15:48:53.735Z,31.97
2019-05-19T15:51:28.947Z,31.97
2019-05-19T15:54:01.823Z,38.27
2019-05-19T15:56:37.261Z,69.83
2019-05-19T16:00:31.310Z,100.00
2019-05-19T16:03:03.845Z,100.00
2019-05-19T16:05:40.554Z,100.00
